createdAt,value
2022-11-12T00:02:53.973Z,4.90
2022-11-12T00:06:55.479Z,4.80
2022-11-12T00:10:56.988Z,4.66
2022-11-12T00:14:58.534Z,4.74
2022-11-12T00:18:59.980Z,4.72
2022-11-12T00:23:01.502Z,4.57
2022-11-12T00:27:02.992Z,4.57
2022-11-12T00:31:09.344Z,4.57
2022-11-12T00:35:13.922Z,4.69
2022-11-12T00:39:15.796Z,4.69
2022-11-12T00:43:17.289Z,4.52
2022-11-12T00:47:18.893Z,4.67
2022-11-12T00:51:20.332Z,4.59
2022-11-12T00:55:21.870Z,4.61
2022-11-12T00:59:23.335Z,4.47
2022-11-12T01:03:27.820Z,4.42
2022-11-12T01:07:29.380Z,4.55
2022-11-12T01:11:31.026Z,4.59
2022-11-12T01:15:32.553Z,4.66
2022-11-12T01:19:34.060Z,4.71
2022-11-12T01:23:37.640Z,4.70
2022-11-12T01:27:39.076Z,4.73
2022-11-12T01:31:40.559Z,4.39
2022-11-12T01:35:42.032Z,4.54
2022-11-12T01:39:43.531Z,4.58
2022-11-12T01:43:45.583Z,4.58
2022-11-12T01:47:50.155Z,4.64
2022-11-12T01:51:56.337Z,4.73
2022-11-12T01:55:59.704Z,4.53
2022-11-12T02:00:05.010Z,4.46
2022-11-12T02:04:06.502Z,4.46
2022-11-12T02:08:11.052Z,4.21
2022-11-12T02:12:32.537Z,4.36
2022-11-12T02:16:38.247Z,4.23
2022-11-12T02:20:39.743Z,4.17
2022-11-12T02:24:41.184Z,4.21
2022-11-12T02:28:42.661Z,4.08
2022-11-12T02:32:44.270Z,4.05
2022-11-12T02:36:45.764Z,3.71
2022-11-12T02:40:47.222Z,3.69
2022-11-12T02:44:48.780Z,3.63
2022-11-12T02:48:50.204Z,3.57
2022-11-12T02:52:51.712Z,3.61
2022-11-12T02:56:53.196Z,3.39
2022-11-12T03:00:55.541Z,3.26
2022-11-12T03:04:57.065Z,3.47
2022-11-12T03:08:58.939Z,3.47
2022-11-12T03:13:01.811Z,3.43
2022-11-12T03:17:04.193Z,3.38
2022-11-12T03:21:05.786Z,3.41
2022-11-12T03:25:08.554Z,3.24
2022-11-12T03:29:10.018Z,3.28
2022-11-12T03:33:14.380Z,3.10
2022-11-12T03:37:15.925Z,2.99
2022-11-12T03:41:17.349Z,2.91
2022-11-12T03:45:20.803Z,2.85
2022-11-12T03:49:22.343Z,2.79
2022-11-12T03:53:23.806Z,2.98
2022-11-12T03:57:25.222Z,3.09
2022-11-12T04:01:26.687Z,2.95
2022-11-12T04:06:00.422Z,2.98
2022-11-12T04:10:01.928Z,3.11
2022-11-12T04:14:03.490Z,3.00
2022-11-12T04:18:23.902Z,2.89
2022-11-12T04:22:25.664Z,2.95
2022-11-12T04:26:27.080Z,2.89
2022-11-12T04:30:28.792Z,2.96
2022-11-12T04:34:30.377Z,2.97
2022-11-12T04:38:31.891Z,3.05
2022-11-12T04:42:51.961Z,3.00
2022-11-12T04:46:53.565Z,3.13
2022-11-12T04:51:03.978Z,2.88
2022-11-12T04:55:06.290Z,2.98
2022-11-12T04:59:07.821Z,2.75
2022-11-12T05:03:09.307Z,2.89
2022-11-12T05:07:10.976Z,2.76
2022-11-12T05:11:13.055Z,2.81
2022-11-12T05:15:15.231Z,2.70
2022-11-12T05:19:16.779Z,2.80
2022-11-12T05:23:18.213Z,2.88
2022-11-12T05:27:21.007Z,2.92
2022-11-12T05:31:22.536Z,2.88
2022-11-12T05:35:23.997Z,2.79
2022-11-12T05:39:25.766Z,2.70
2022-11-12T05:43:27.158Z,2.58
2022-11-12T05:47:28.604Z,2.65
2022-11-12T05:51:30.124Z,2.66
2022-11-12T05:55:35.937Z,2.72
2022-11-12T05:59:38.509Z,2.58
2022-11-12T06:03:39.981Z,2.61
2022-11-12T06:07:41.431Z,2.51
2022-11-12T06:11:42.884Z,2.46
2022-11-12T06:15:44.856Z,2.63
2022-11-12T06:19:46.268Z,2.56
2022-11-12T06:23:50.360Z,2.52
2022-11-12T06:27:52.285Z,2.37
2022-11-12T06:31:53.735Z,2.39
2022-11-12T06:36:04.136Z,2.32
2022-11-12T06:40:06.154Z,2.28
2022-11-12T06:44:07.609Z,2.23
2022-11-12T06:48:09.044Z,2.35
2022-11-12T06:52:16.217Z,2.31
2022-11-12T06:56:18.166Z,2.38
2022-11-12T07:00:20.475Z,2.32
2022-11-12T07:04:21.979Z,2.40
2022-11-12T07:08:23.699Z,2.50
2022-11-12T07:12:25.297Z,2.50
2022-11-12T07:16:26.819Z,2.57
2022-11-12T07:20:28.256Z,2.69
2022-11-12T07:24:29.802Z,2.65
2022-11-12T07:28:31.643Z,2.62
2022-11-12T07:32:34.484Z,2.87
2022-11-12T07:36:37.702Z,2.96
2022-11-12T07:40:39.124Z,3.02
2022-11-12T07:44:40.581Z,2.80
2022-11-12T07:48:42.218Z,3.01
2022-11-12T07:52:43.691Z,3.31
2022-11-12T07:56:45.394Z,3.51
2022-11-12T08:00:46.839Z,3.75
2022-11-12T08:04:48.289Z,4.00
2022-11-12T08:08:57.463Z,4.42
2022-11-12T08:12:58.937Z,4.65
2022-11-12T08:17:00.441Z,5.01
2022-11-12T08:21:03.488Z,5.00
2022-11-12T08:25:05.312Z,5.28
2022-11-12T08:29:08.672Z,5.56
2022-11-12T08:33:10.417Z,5.73
2022-11-12T08:37:13.440Z,5.96
2022-11-12T08:41:16.232Z,6.39
2022-11-12T08:45:17.686Z,6.40
2022-11-12T08:49:19.122Z,6.30
2022-11-12T08:53:22.030Z,6.61
2022-11-12T08:57:23.466Z,6.83
2022-11-12T09:01:25.061Z,7.03
2022-11-12T09:05:26.717Z,7.69
2022-11-12T09:09:28.242Z,7.69
2022-11-12T09:13:29.919Z,7.58
2022-11-12T09:17:32.520Z,7.86
2022-11-12T09:21:33.962Z,8.53
2022-11-12T09:25:36.458Z,9.19
2022-11-12T09:29:37.893Z,9.28
2022-11-12T09:33:39.371Z,9.69
2022-11-12T09:37:40.852Z,10.19
2022-11-12T09:41:42.895Z,9.83
2022-11-12T09:45:59.993Z,10.20
2022-11-12T09:50:19.187Z,10.29
2022-11-12T09:54:26.368Z,10.67
2022-11-12T09:58:28.309Z,10.47
2022-11-12T10:02:45.526Z,10.18
2022-11-12T10:07:01.562Z,10.39
2022-11-12T10:11:25.318Z,10.93
2022-11-12T10:16:20.969Z,10.99
2022-11-12T10:20:27.890Z,10.44
2022-11-12T10:24:35.225Z,11.02
2022-11-12T10:29:05.756Z,10.80
2022-11-12T10:33:11.570Z,11.55
2022-11-12T10:37:20.770Z,12.28
2022-11-12T10:41:27.104Z,13.11
2022-11-12T10:45:29.128Z,14.19
2022-11-12T10:49:30.602Z,14.78
2022-11-12T10:53:38.222Z,13.83
2022-11-12T10:57:39.711Z,15.02
2022-11-12T11:01:45.655Z,14.36
2022-11-12T11:05:58.141Z,15.01
2022-11-12T11:10:00.971Z,15.56
2022-11-12T11:14:29.103Z,16.16
2022-11-12T11:18:33.970Z,16.21
2022-11-12T11:22:46.795Z,15.89
2022-11-12T11:27:12.297Z,16.33
2022-11-12T11:31:32.714Z,16.85
2022-11-12T11:35:46.486Z,16.84
2022-11-12T11:40:10.507Z,17.19
2022-11-12T11:44:15.131Z,17.18
2022-11-12T11:48:48.840Z,16.02
2022-11-12T11:52:54.303Z,15.83
2022-11-12T11:57:00.136Z,14.40
2022-11-12T12:01:26.106Z,15.42
2022-11-12T12:05:44.822Z,15.07
2022-11-12T12:10:04.825Z,14.48
2022-11-12T12:14:17.246Z,15.06
2022-11-12T12:18:27.857Z,15.07
2022-11-12T12:22:42.004Z,15.14
2022-11-12T12:27:11.629Z,15.57
2022-11-12T12:31:21.698Z,14.94
2022-11-12T12:35:36.825Z,14.76
2022-11-12T12:39:59.998Z,14.96
2022-11-12T12:44:10.443Z,15.85
2022-11-12T12:48:15.175Z,14.75
2022-11-12T12:52:16.668Z,15.78
2022-11-12T12:56:45.779Z,16.28
2022-11-12T13:01:12.192Z,16.66
2022-11-12T13:05:42.907Z,16.65
2022-11-12T13:09:44.392Z,16.47
2022-11-12T13:13:45.879Z,17.29
2022-11-12T13:17:49.391Z,16.83
2022-11-12T13:22:19.453Z,16.22
2022-11-12T13:26:39.430Z,17.09
2022-11-12T13:30:40.839Z,16.62
2022-11-12T13:34:42.329Z,17.03
2022-11-12T13:38:44.602Z,16.57
2022-11-12T13:42:49.604Z,15.83
2022-11-12T13:46:52.622Z,16.34
2022-11-12T13:50:58.487Z,15.08
2022-11-12T13:55:13.274Z,14.15
2022-11-12T13:59:22.472Z,15.55
2022-11-12T14:03:28.785Z,15.63
2022-11-12T14:07:59.737Z,15.64
2022-11-12T14:12:30.253Z,16.01
2022-11-12T14:16:50.552Z,14.67
2022-11-12T14:20:53.160Z,15.25
2022-11-12T14:25:00.772Z,15.01
2022-11-12T14:29:02.375Z,15.12
2022-11-12T14:33:11.310Z,14.94
2022-11-12T14:37:39.914Z,13.91
2022-11-12T14:41:47.716Z,14.28
2022-11-12T14:45:54.086Z,14.07
2022-11-12T14:49:58.261Z,13.82
2022-11-12T14:54:07.311Z,13.44
2022-11-12T14:58:14.879Z,13.17
2022-11-12T15:02:34.278Z,12.74
2022-11-12T15:06:55.538Z,12.48
2022-11-12T15:11:21.317Z,12.13
2022-11-12T15:15:23.385Z,11.74
2022-11-12T15:19:33.585Z,11.56
2022-11-12T15:23:35.534Z,11.32
2022-11-12T15:27:42.299Z,10.93
2022-11-12T15:31:49.874Z,10.83
2022-11-12T15:35:59.715Z,10.72
2022-11-12T15:40:25.938Z,10.13
2022-11-12T15:44:34.073Z,10.21
2022-11-12T15:48:35.538Z,9.72
2022-11-12T15:52:39.126Z,9.91
2022-11-12T15:56:41.370Z,9.55
2022-11-12T16:00:42.960Z,9.63
2022-11-12T16:04:44.789Z,9.20
2022-11-12T16:08:46.536Z,9.33
2022-11-12T16:12:49.419Z,9.24
2022-11-12T16:16:50.859Z,8.93
2022-11-12T16:20:54.631Z,8.79
2022-11-12T16:24:56.042Z,8.93
2022-11-12T16:28:57.735Z,8.91
2022-11-12T16:33:01.346Z,8.79
2022-11-12T16:37:03.042Z,8.56
2022-11-12T16:41:04.593Z,8.47
2022-11-12T16:45:09.373Z,8.36
2022-11-12T16:49:15.329Z,8.15
2022-11-12T16:53:16.947Z,8.17
2022-11-12T16:57:18.469Z,7.72
2022-11-12T17:01:32.236Z,7.75
2022-11-12T17:05:33.750Z,7.87
2022-11-12T17:09:35.185Z,7.39
2022-11-12T17:13:38.814Z,7.25
2022-11-12T17:17:40.341Z,7.46
2022-11-12T17:21:44.258Z,7.37
2022-11-12T17:25:46.055Z,7.15
2022-11-12T17:29:47.651Z,7.39
2022-11-12T17:33:51.742Z,6.69
2022-11-12T17:37:53.217Z,6.78
2022-11-12T17:41:54.697Z,6.79
2022-11-12T17:45:56.868Z,6.95
2022-11-12T17:49:58.301Z,6.89
2022-11-12T17:53:59.865Z,6.91
2022-11-12T17:58:04.042Z,6.85
2022-11-12T18:02:05.662Z,6.78
2022-11-12T18:06:13.461Z,6.81
2022-11-12T18:10:19.371Z,6.51
2022-11-12T18:14:23.019Z,6.48
2022-11-12T18:18:24.479Z,6.65
2022-11-12T18:22:26.248Z,6.48
2022-11-12T18:26:28.041Z,6.54
2022-11-12T18:30:29.554Z,6.47
2022-11-12T18:34:31.148Z,6.44
2022-11-12T18:38:34.673Z,6.58
2022-11-12T18:42:36.192Z,6.59
2022-11-12T18:46:37.712Z,6.44
2022-11-12T18:50:39.285Z,6.67
2022-11-12T18:54:40.787Z,6.77
2022-11-12T18:58:42.461Z,6.69
2022-11-12T19:02:43.963Z,6.76
2022-11-12T19:06:45.522Z,6.56
2022-11-12T19:10:47.025Z,6.57
2022-11-12T19:14:48.571Z,6.56
2022-11-12T19:18:52.381Z,6.39
2022-11-12T19:22:54.272Z,6.43
2022-11-12T19:26:55.792Z,6.52
2022-11-12T19:30:57.437Z,6.48
2022-11-12T19:35:07.492Z,6.42
2022-11-12T19:39:08.959Z,6.30
2022-11-12T19:43:10.437Z,6.49
2022-11-12T19:47:11.961Z,6.59
2022-11-12T19:51:18.977Z,6.44
2022-11-12T19:55:20.452Z,6.30
2022-11-12T19:59:22.027Z,6.35
2022-11-12T20:03:27.165Z,6.42
2022-11-12T20:07:28.673Z,6.54
2022-11-12T20:11:30.798Z,6.50
2022-11-12T20:15:32.295Z,6.14
2022-11-12T20:19:34.146Z,6.32
2022-11-12T20:23:36.910Z,6.32
2022-11-12T20:27:38.397Z,6.47
2022-11-12T20:31:43.922Z,6.33
2022-11-12T20:35:48.355Z,6.45
2022-11-12T20:39:49.817Z,6.20
2022-11-12T20:43:59.327Z,6.20
2022-11-12T20:48:00.787Z,6.30
2022-11-12T20:52:02.403Z,6.39
2022-11-12T20:56:08.651Z,6.38
2022-11-12T21:00:13.806Z,6.53
2022-11-12T21:04:16.287Z,6.62
2022-11-12T21:08:17.708Z,6.56
2022-11-12T21:12:19.198Z,6.59
2022-11-12T21:16:20.798Z,6.70
2022-11-12T21:20:22.285Z,6.58
2022-11-12T21:24:23.741Z,6.64
2022-11-12T21:28:25.531Z,6.67
2022-11-12T21:32:27.272Z,6.60
2022-11-12T21:36:29.332Z,6.49
2022-11-12T21:40:30.807Z,6.45
2022-11-12T21:44:32.362Z,6.28
2022-11-12T21:48:34.741Z,6.42
2022-11-12T21:52:36.223Z,6.74
2022-11-12T21:56:40.061Z,6.69
2022-11-12T22:00:42.758Z,6.25
2022-11-12T22:04:44.445Z,6.23
2022-11-12T22:08:46.442Z,6.30
2022-11-12T22:13:12.113Z,6.18
2022-11-12T22:17:09.391Z,6.14
2022-11-12T22:21:19.055Z,6.22
2022-11-12T22:25:20.548Z,6.25
2022-11-12T22:29:22.000Z,6.36
2022-11-12T22:33:23.501Z,6.31
2022-11-12T22:37:24.929Z,6.36
2022-11-12T22:41:29.024Z,6.44
2022-11-12T22:45:30.494Z,6.30
2022-11-12T22:49:31.966Z,6.27
2022-11-12T22:53:33.734Z,6.35
2022-11-12T22:57:35.270Z,6.31
2022-11-12T23:01:36.834Z,6.36
2022-11-12T23:05:38.394Z,6.48
2022-11-12T23:09:39.842Z,6.54
2022-11-12T23:13:41.662Z,6.37
2022-11-12T23:17:43.108Z,6.60
2022-11-12T23:21:44.565Z,6.68
2022-11-12T23:25:46.118Z,6.87
2022-11-12T23:29:47.550Z,6.70
2022-11-12T23:33:51.701Z,6.85
2022-11-12T23:37:53.437Z,6.71
2022-11-12T23:41:54.891Z,6.66
2022-11-12T23:45:56.711Z,6.67
2022-11-12T23:49:58.172Z,6.60
2022-11-12T23:53:59.622Z,6.61
2022-11-12T23:58:01.092Z,6.70
